Time;durP1;ratioP1;P1;durP2;ratioP2;P2;SDS_P1;SDS_P2;PMS_P1;PMS_P2;Temp;Humidity;BMP_temperature;BMP_pressure;BME280_temperature;BME280_humidity;BME280_pressure;Samples;Min_cycle;Max_cycle;Signal;HPM_P1;HPM_P2
2023/01/24 00:00:48;;;;;;;13.32;9.00;;;;;;;3.51;78.38;103130.13;6091174;23;20026;-71
2023/01/24 00:03:15;;;;;;;13.80;10.23;;;;;;;3.54;78.15;103122.63;6092216;23;20177;-71
2023/01/24 00:05:42;;;;;;;16.20;10.10;;;;;;;3.54;77.99;103125.19;6092348;23;20046;-71
2023/01/24 00:08:08;;;;;;;14.68;8.73;;;;;;;3.55;77.68;103121.84;6091929;23;20101;-71
2023/01/24 00:10:33;;;;;;;15.57;9.48;;;;;;;3.57;78.06;103132.16;6091394;23;20073;-71
2023/01/24 00:12:59;;;;;;;16.58;10.32;;;;;;;3.57;78.11;103129.59;6089733;23;20014;-71
2023/01/24 00:15:24;;;;;;;13.07;8.40;;;;;;;3.53;77.94;103134.53;6091498;23;20450;-71
2023/01/24 00:17:50;;;;;;;15.65;9.40;;;;;;;3.56;78.60;103128.69;6092498;23;20635;-72
2023/01/24 00:20:15;;;;;;;13.57;9.38;;;;;;;3.57;77.53;103122.81;6091400;23;20403;-71
2023/01/24 00:22:41;;;;;;;13.82;9.80;;;;;;;3.57;78.42;103133.03;6092496;23;20473;-72
2023/01/24 00:25:08;;;;;;;14.32;9.07;;;;;;;3.59;76.95;103136.56;6093183;23;20015;-71
2023/01/24 00:27:34;;;;;;;13.63;8.98;;;;;;;3.58;77.49;103139.03;6091748;23;20018;-70
2023/01/24 00:30:00;;;;;;;13.60;9.02;;;;;;;3.59;78.39;103146.78;6090506;23;20037;-71
2023/01/24 00:32:26;;;;;;;13.07;8.25;;;;;;;3.58;78.72;103147.59;6091492;23;20026;-72
2023/01/24 00:34:51;;;;;;;13.00;7.68;;;;;;;3.58;77.30;103136.47;6090188;23;20002;-71
2023/01/24 00:37:17;;;;;;;11.00;7.30;;;;;;;3.63;76.82;103127.38;6092106;23;20090;-71
2023/01/24 00:39:42;;;;;;;11.10;6.88;;;;;;;3.67;76.20;103126.78;6091361;23;20046;-72
2023/01/24 00:42:08;;;;;;;9.38;6.85;;;;;;;3.69;76.48;103132.84;6090982;23;20014;-70
2023/01/24 00:44:33;;;;;;;11.40;7.70;;;;;;;3.71;76.36;103126.13;6091727;23;20344;-72
2023/01/24 00:46:58;;;;;;;12.52;8.52;;;;;;;3.71;76.63;103138.91;6091737;23;20165;-71
2023/01/24 00:49:24;;;;;;;14.90;9.38;;;;;;;3.68;77.52;103138.75;6092567;23;20337;-72
2023/01/24 00:51:49;;;;;;;12.88;8.77;;;;;;;3.67;76.79;103131.91;6091766;23;20018;-73
2023/01/24 00:54:15;;;;;;;13.02;8.60;;;;;;;3.68;76.54;103128.53;6091765;23;20026;-71
2023/01/24 00:56:40;;;;;;;10.65;7.22;;;;;;;3.68;76.21;103120.84;6091966;23;20482;-71
2023/01/24 00:59:06;;;;;;;12.32;7.88;;;;;;;3.68;76.68;103128.53;6091094;23;20014;-71
2023/01/24 01:01:31;;;;;;;13.63;8.77;;;;;;;3.66;76.74;103127.56;6090854;23;20082;-73
2023/01/24 01:03:57;;;;;;;12.57;8.48;;;;;;;3.67;76.40;103134.44;6091180;23;20026;-72
2023/01/24 01:06:23;;;;;;;13.60;9.07;;;;;;;3.66;76.31;103132.69;6092612;23;20014;-72
2023/01/24 01:08:50;;;;;;;10.20;7.90;;;;;;;3.65;75.72;103126.66;6091080;23;20014;-72
2023/01/24 01:11:15;;;;;;;10.73;7.82;;;;;;;3.67;75.52;103134.44;6092473;23;20025;-73
2023/01/24 01:13:41;;;;;;;10.25;7.68;;;;;;;3.66;75.72;103138.69;6092334;23;20019;-71
2023/01/24 01:16:10;;;;;;;10.32;7.60;;;;;;;3.66;76.29;103142.91;6091167;23;20018;-71
2023/01/24 01:18:37;;;;;;;12.60;8.93;;;;;;;3.64;76.53;103142.84;6090675;23;20041;-72
2023/01/24 01:21:02;;;;;;;14.60;9.60;;;;;;;3.64;77.49;103153.06;6092466;23;20350;-72
2023/01/24 01:23:28;;;;;;;13.85;8.93;;;;;;;3.61;77.60;103157.09;6091626;23;20025;-71
2023/01/24 01:25:58;;;;;;;12.40;8.73;;;;;;;3.58;78.11;103159.50;6091688;23;20006;-71
2023/01/24 01:28:24;;;;;;;12.30;8.52;;;;;;;3.58;77.48;103157.81;6091730;23;20006;-71
2023/01/24 01:30:52;;;;;;;12.02;8.30;;;;;;;3.56;77.94;103159.38;6091609;23;20018;-71
2023/01/24 01:33:18;;;;;;;11.48;7.13;;;;;;;3.57;75.50;103140.69;6091678;23;20025;-72
2023/01/24 01:35:43;;;;;;;10.68;7.25;;;;;;;3.59;76.04;103149.34;6092143;23;20022;-72
2023/01/24 01:38:09;;;;;;;10.43;7.47;;;;;;;3.62;75.88;103143.53;6091843;23;20086;-72
2023/01/24 01:40:35;;;;;;;10.27;7.75;;;;;;;3.65;75.85;103138.56;6091334;23;20011;-71
2023/01/24 01:43:01;;;;;;;12.52;8.02;;;;;;;3.62;75.97;103149.50;6092924;23;20094;-72
2023/01/24 01:45:30;;;;;;;11.80;7.55;;;;;;;3.57;76.51;103160.28;6091834;23;20102;-72
2023/01/24 01:47:57;;;;;;;10.57;7.63;;;;;;;3.54;77.22;103154.19;6092466;23;20018;-71
2023/01/24 01:50:30;;;;;;;12.57;8.45;;;;;;;3.52;77.08;103152.34;6092202;23;20034;-72
2023/01/24 01:52:57;;;;;;;11.88;7.75;;;;;;;3.56;76.93;103148.31;6091729;23;20014;-71
2023/01/24 01:55:28;;;;;;;12.70;8.70;;;;;;;3.50;76.55;103139.47;6091720;23;20006;-72
2023/01/24 01:57:54;;;;;;;12.30;8.77;;;;;;;3.48;76.83;103146.16;6091224;23;20029;-72
2023/01/24 02:00:27;;;;;;;12.88;8.55;;;;;;;3.47;76.97;103152.06;6090839;23;20101;-72
2023/01/24 02:05:53;;;;;;;12.30;8.27;;;;;;;3.47;77.43;103159.72;6088604;23;20061;-70
2023/01/24 02:08:22;;;;;;;11.02;7.25;;;;;;;3.46;77.77;103160.53;6092079;23;20018;-71
2023/01/24 02:13:39;;;;;;;11.75;7.22;;;;;;;3.47;76.65;103151.19;6092740;23;20065;-71
2023/01/24 02:16:06;;;;;;;10.10;6.55;;;;;;;3.49;75.43;103145.38;6088706;23;20362;-71
2023/01/24 02:18:37;;;;;;;9.48;6.35;;;;;;;3.47;75.52;103149.50;6090970;23;20025;-71
2023/01/24 02:21:07;;;;;;;9.63;6.63;;;;;;;3.47;75.17;103152.06;6091139;23;20018;-71
2023/01/24 02:23:48;;;;;;;8.50;6.25;;;;;;;3.47;75.77;103152.06;6092030;23;20029;-70
2023/01/24 02:26:25;;;;;;;9.57;6.22;;;;;;;3.45;75.59;103146.00;6091494;23;20010;-70
2023/01/24 02:29:05;;;;;;;9.88;6.55;;;;;;;3.48;75.02;103155.50;6089937;23;20013;-71
2023/01/24 02:31:53;;;;;;;10.77;7.35;;;;;;;3.44;75.77;103154.44;6091334;23;20010;-71
2023/01/24 02:34:18;;;;;;;11.15;6.97;;;;;;;3.43;76.88;103155.25;6089985;23;20026;-71
2023/01/24 02:36:44;;;;;;;10.18;6.43;;;;;;;3.42;76.35;103145.81;6091227;23;20017;-71
2023/01/24 02:39:18;;;;;;;12.23;7.15;;;;;;;3.38;75.61;103140.41;6089362;23;20014;-71
2023/01/24 02:41:54;;;;;;;9.70;6.80;;;;;;;3.39;75.51;103137.97;6090527;23;20097;-70
2023/01/24 02:44:28;;;;;;;11.23;6.53;;;;;;;3.38;75.54;103138.75;6091277;23;20010;-70
2023/01/24 02:46:53;;;;;;;9.20;6.57;;;;;;;3.40;75.25;103136.28;6090538;23;20013;-70
2023/01/24 02:49:19;;;;;;;12.05;7.05;;;;;;;3.40;74.86;103141.41;6092151;23;20010;-71
2023/01/24 02:54:28;;;;;;;9.18;6.38;;;;;;;3.38;76.47;103160.88;6091244;23;20040;-72
2023/01/24 02:59:37;;;;;;;8.63;5.95;;;;;;;3.34;75.60;103151.28;6090304;23;20020;-72
2023/01/24 03:02:03;;;;;;;8.35;5.95;;;;;;;3.32;75.38;103152.88;6091054;23;20089;-73
2023/01/24 03:04:28;;;;;;;10.63;6.50;;;;;;;3.34;75.22;103148.72;6089911;23;20089;-72
2023/01/24 03:06:53;;;;;;;9.02;6.32;;;;;;;3.35;75.07;103153.03;6091287;23;20029;-73
2023/01/24 03:09:19;;;;;;;8.50;5.88;;;;;;;3.35;75.75;103150.50;6092156;23;20018;-73
2023/01/24 03:11:46;;;;;;;10.20;6.55;;;;;;;3.32;75.14;103153.72;6092225;23;20010;-72
2023/01/24 03:36:06;;;;;;;10.27;6.38;;;;;;;3.25;76.83;103151.63;6092280;23;20033;-73
2023/01/24 03:41:16;;;;;;;10.05;7.07;;;;;;;3.20;77.25;103150.44;6093672;23;20469;-72
2023/01/24 03:43:43;;;;;;;11.35;6.93;;;;;;;3.18;76.78;103151.16;6094006;23;20006;-70
2023/01/24 03:46:08;;;;;;;11.15;7.10;;;;;;;3.18;76.85;103152.03;6093472;23;20085;-70
2023/01/24 03:48:36;;;;;;;10.65;6.57;;;;;;;3.16;76.53;103138.28;6093040;23;20089;-70
2023/01/24 03:53:45;;;;;;;9.15;6.18;;;;;;;3.21;76.02;103129.22;6092546;23;20097;-70
2023/01/24 03:56:11;;;;;;;10.10;6.65;;;;;;;3.18;75.87;103140.91;6091947;23;20083;-70
2023/01/24 03:58:37;;;;;;;9.07;6.18;;;;;;;3.19;75.57;103135.91;6094166;23;20470;-70
2023/01/24 04:01:02;;;;;;;8.18;5.85;;;;;;;3.19;75.76;103146.13;6092792;23;20029;-70
2023/01/24 04:03:28;;;;;;;11.05;6.43;;;;;;;3.19;76.13;103141.03;6093705;23;20014;-71
2023/01/24 04:05:53;;;;;;;8.85;6.13;;;;;;;3.18;76.02;103143.47;6092847;23;20015;-70
2023/01/24 04:08:19;;;;;;;9.50;6.40;;;;;;;3.18;76.08;103146.03;6091615;23;20015;-71
2023/01/24 04:10:44;;;;;;;8.68;5.68;;;;;;;3.20;75.60;103147.88;6092930;23;20141;-71
2023/01/24 04:13:10;;;;;;;8.90;6.28;;;;;;;3.19;76.21;103138.47;6093345;23;20044;-70
2023/01/24 04:15:37;;;;;;;8.98;5.60;;;;;;;3.15;76.44;103148.41;6092231;23;20019;-71
2023/01/24 04:18:04;;;;;;;8.77;6.15;;;;;;;3.14;77.07;103162.84;6093563;23;20025;-71
2023/01/24 04:20:34;;;;;;;10.35;6.10;;;;;;;3.12;75.94;103151.66;6092289;23;20014;-70
2023/01/24 04:23:01;;;;;;;10.43;7.13;;;;;;;3.11;76.32;103160.09;6092756;23;20026;-70
2023/01/24 04:25:27;;;;;;;11.55;7.28;;;;;;;3.12;76.03;103155.88;6093363;23;20010;-70
2023/01/24 04:27:52;;;;;;;9.82;6.90;;;;;;;3.11;76.76;103155.00;6091484;23;20020;-70
2023/01/24 04:30:21;;;;;;;9.57;6.85;;;;;;;3.09;76.99;103153.16;6091196;23;20406;-70
2023/01/24 04:32:46;;;;;;;10.02;6.53;;;;;;;3.06;76.10;103146.19;6089520;23;20113;-70
2023/01/24 04:35:20;;;;;;;9.82;6.05;;;;;;;3.07;75.76;103145.41;6091077;23;20608;-70
2023/01/24 04:37:46;;;;;;;9.87;6.67;;;;;;;3.07;76.41;103145.41;6093063;23;20052;-70
2023/01/24 04:40:13;;;;;;;9.35;6.80;;;;;;;3.07;75.99;103141.97;6091554;23;20252;-70
2023/01/24 04:42:39;;;;;;;9.82;6.70;;;;;;;3.09;76.41;103143.81;6091124;23;20081;-70
2023/01/24 04:45:05;;;;;;;9.70;6.75;;;;;;;3.07;76.57;103145.41;6090940;23;20025;-70
2023/01/24 04:47:30;;;;;;;9.75;5.88;;;;;;;3.07;76.03;103136.84;6092242;23;20149;-70
2023/01/24 04:49:56;;;;;;;10.25;6.53;;;;;;;3.07;75.34;103134.31;6092715;23;20450;-70
2023/01/24 04:52:21;;;;;;;8.95;6.43;;;;;;;3.07;76.29;103153.06;6093632;23;20085;-70
2023/01/24 04:54:46;;;;;;;9.38;6.38;;;;;;;3.05;76.88;103152.09;6091742;23;20030;-71
2023/01/24 04:57:12;;;;;;;10.82;7.18;;;;;;;3.06;77.14;103147.84;6090883;23;20077;-71
2023/01/24 04:59:38;;;;;;;11.73;8.77;;;;;;;3.02;76.78;103156.16;6089491;23;20343;-70
2023/01/24 05:02:04;;;;;;;12.73;7.50;;;;;;;3.04;76.99;103157.13;6091962;23;20006;-70
2023/01/24 05:04:30;;;;;;;9.68;6.78;;;;;;;3.02;76.88;103148.47;6091122;23;20085;-70
2023/01/24 05:06:55;;;;;;;9.13;5.90;;;;;;;3.05;76.66;103147.00;6091222;23;20022;-70
2023/01/24 05:09:21;;;;;;;9.00;5.93;;;;;;;3.02;76.48;103148.47;6091508;23;20467;-70
2023/01/24 05:11:46;;;;;;;10.20;6.32;;;;;;;3.02;75.97;103141.72;6091211;23;20055;-73
2023/01/24 05:14:12;;;;;;;9.25;6.50;;;;;;;3.01;75.92;103136.50;6093228;23;20354;-73
2023/01/24 05:16:37;;;;;;;9.10;6.18;;;;;;;3.02;76.29;103141.72;6092382;23;20024;-70
2023/01/24 05:19:03;;;;;;;9.63;6.32;;;;;;;3.00;76.67;103148.38;6091892;23;20024;-70
2023/01/24 05:21:29;;;;;;;8.68;6.03;;;;;;;3.01;76.80;103152.72;6092113;23;20129;-70
2023/01/24 05:23:55;;;;;;;9.18;6.38;;;;;;;3.01;77.34;103146.72;6089891;23;20030;-71
2023/01/24 05:26:22;;;;;;;9.00;6.28;;;;;;;3.02;77.07;103154.47;6091684;23;20350;-70
2023/01/24 05:28:48;;;;;;;10.15;6.72;;;;;;;3.04;77.09;103149.44;6091177;23;20097;-70
2023/01/24 05:31:14;;;;;;;11.23;6.85;;;;;;;3.05;76.84;103153.78;6092412;23;20013;-70
2023/01/24 05:33:40;;;;;;;10.15;7.22;;;;;;;3.04;76.55;103154.56;6091813;23;20019;-71
2023/01/24 05:36:20;;;;;;;9.00;6.53;;;;;;;3.07;77.00;103154.75;6090576;23;20026;-70
2023/01/24 05:38:46;;;;;;;11.57;7.60;;;;;;;3.07;76.59;103158.19;6090239;23;20477;-71
2023/01/24 05:41:16;;;;;;;9.98;6.93;;;;;;;3.07;77.43;103167.50;6090757;23;20045;-72
2023/01/24 05:43:42;;;;;;;10.70;7.75;;;;;;;3.06;77.23;103170.84;6091311;23;20342;-71
2023/01/24 05:46:11;;;;;;;9.45;6.95;;;;;;;3.06;76.85;103173.41;6090603;23;20015;-70
2023/01/24 05:48:37;;;;;;;10.95;7.50;;;;;;;3.06;77.10;103164.06;6090197;23;20026;-70
2023/01/24 05:51:05;;;;;;;9.90;6.82;;;;;;;3.05;76.65;103164.88;6088867;23;20025;-70
2023/01/24 05:53:33;;;;;;;10.23;6.82;;;;;;;3.07;77.09;103170.97;6089335;23;20073;-73
2023/01/24 05:56:01;;;;;;;10.57;7.65;;;;;;;3.05;77.47;103177.66;6090121;23;20002;-73
2023/01/24 05:58:28;;;;;;;12.65;7.97;;;;;;;3.04;77.41;103183.53;6091979;23;20069;-71
2023/01/24 06:00:54;;;;;;;10.82;7.25;;;;;;;3.06;77.29;103178.50;6090809;23;20066;-70
2023/01/24 06:03:21;;;;;;;9.70;6.32;;;;;;;3.05;77.77;103185.31;6091729;23;20026;-69
2023/01/24 06:05:53;;;;;;;9.50;6.28;;;;;;;3.05;77.23;103179.31;6091058;23;20450;-70
2023/01/24 06:08:19;;;;;;;8.73;6.43;;;;;;;3.05;77.53;103182.78;6091274;23;20041;-70
2023/01/24 06:10:44;;;;;;;10.10;6.40;;;;;;;3.03;77.63;103181.78;6090264;23;20030;-71
2023/01/24 06:13:11;;;;;;;8.93;6.18;;;;;;;3.05;77.03;103180.22;6091006;23;20406;-70
2023/01/24 06:15:36;;;;;;;9.18;6.45;;;;;;;3.05;76.89;103187.88;6089731;23;20022;-71
2023/01/24 06:18:02;;;;;;;9.48;6.13;;;;;;;3.07;77.26;103185.41;6090381;23;20504;-70
2023/01/24 06:20:28;;;;;;;7.75;5.43;;;;;;;3.06;76.66;103178.50;6090881;23;20026;-70
2023/01/24 06:22:59;;;;;;;8.88;6.50;;;;;;;3.06;77.17;103184.50;6092166;23;20010;-71
2023/01/24 06:25:25;;;;;;;9.73;6.90;;;;;;;3.07;77.15;103191.41;6092836;23;19998;-71
2023/01/24 06:27:51;;;;;;;11.45;7.85;;;;;;;3.06;77.41;103192.19;6092093;23;20095;-71
2023/01/24 06:30:18;;;;;;;10.80;6.32;;;;;;;3.08;76.74;103193.19;6089483;23;20546;-71
2023/01/24 06:33:18;;;;;;;8.73;6.47;;;;;;;3.06;76.82;103194.72;6089864;23;20065;-71
2023/01/24 06:36:08;;;;;;;9.85;6.55;;;;;;;3.07;77.09;103200.72;6089123;23;20023;-71
2023/01/24 06:38:34;;;;;;;10.95;6.47;;;;;;;3.06;76.86;103209.16;6089791;23;20062;-71
2023/01/24 06:41:01;;;;;;;9.27;6.65;;;;;;;3.06;77.36;103209.16;6088612;23;20010;-71
2023/01/24 06:43:27;;;;;;;9.05;6.40;;;;;;;3.06;77.65;103211.72;6091516;23;20040;-71
2023/01/24 06:45:52;;;;;;;9.65;6.38;;;;;;;3.06;77.48;103211.72;6090113;23;20038;-70
2023/01/24 06:48:18;;;;;;;10.63;6.60;;;;;;;3.03;77.02;103211.53;6091819;23;20097;-72
2023/01/24 06:50:44;;;;;;;10.25;6.85;;;;;;;3.02;77.73;103223.47;6093110;23;20627;-72
2023/01/24 06:53:09;;;;;;;9.77;7.18;;;;;;;3.02;77.88;103225.13;6092060;23;20025;-71
2023/01/24 06:55:35;;;;;;;12.35;6.70;;;;;;;3.01;76.95;103220.78;6092062;23;20006;-71
2023/01/24 06:58:03;;;;;;;10.57;7.32;;;;;;;2.99;77.38;103223.28;6092735;23;20049;-71
2023/01/24 07:00:29;;;;;;;8.63;7.10;;;;;;;2.99;77.31;103216.47;6093125;23;20375;-71
2023/01/24 07:03:02;;;;;;;8.82;6.53;;;;;;;3.00;76.65;103219.91;6091312;23;20014;-71
2023/01/24 07:05:28;;;;;;;6.65;5.07;;;;;;;3.00;76.17;103217.34;6089862;23;20045;-71
2023/01/24 07:07:54;;;;;;;8.57;5.85;;;;;;;3.00;76.21;103222.47;6090965;23;20006;-71
2023/01/24 07:10:20;;;;;;;7.80;5.72;;;;;;;3.01;76.87;103224.25;6091631;23;20022;-72
2023/01/24 07:12:47;;;;;;;7.85;6.20;;;;;;;3.02;76.53;103228.56;6092349;23;20359;-72
2023/01/24 07:15:12;;;;;;;9.95;5.63;;;;;;;3.05;76.31;103222.75;6090799;23;20018;-72
2023/01/24 07:17:38;;;;;;;8.13;5.95;;;;;;;3.05;76.14;103231.31;6093647;23;20037;-73
2023/01/24 07:20:04;;;;;;;8.40;5.82;;;;;;;3.06;76.91;103240.72;6092660;23;20113;-73
2023/01/24 07:22:30;;;;;;;9.38;6.35;;;;;;;3.08;77.03;103235.72;6093402;23;20342;-73
2023/01/24 07:24:56;;;;;;;8.05;6.05;;;;;;;3.09;77.18;103243.47;6092525;23;20025;-73
2023/01/24 07:27:22;;;;;;;9.65;6.68;;;;;;;3.11;76.94;103248.69;6093034;23;20022;-73
2023/01/24 07:29:47;;;;;;;8.85;6.60;;;;;;;3.11;76.86;103246.97;6092466;23;20042;-73
2023/01/24 07:32:13;;;;;;;10.98;6.57;;;;;;;3.11;76.46;103251.25;6092141;23;20533;-73
2023/01/24 07:34:38;;;;;;;11.40;6.82;;;;;;;3.13;77.03;103247.09;6093584;23;20010;-73
2023/01/24 07:37:06;;;;;;;9.25;6.13;;;;;;;3.13;76.19;103253.09;6093008;23;20029;-73
2023/01/24 07:39:32;;;;;;;10.40;6.82;;;;;;;3.15;76.56;103250.63;6093307;23;20026;-73
2023/01/24 07:41:57;;;;;;;8.18;6.40;;;;;;;3.14;75.83;103234.41;6093711;23;20097;-73
2023/01/24 07:44:22;;;;;;;9.13;6.63;;;;;;;3.15;75.99;103251.50;6093026;23;20042;-73
2023/01/24 07:46:48;;;;;;;8.90;6.20;;;;;;;3.16;76.30;103260.06;6090357;23;20006;-73
2023/01/24 07:49:13;;;;;;;9.38;6.47;;;;;;;3.18;75.49;103261.91;6091747;23;20018;-73
2023/01/24 07:51:39;;;;;;;11.52;7.40;;;;;;;3.23;75.46;103255.41;6093238;23;20525;-73
2023/01/24 07:54:05;;;;;;;14.77;7.47;;;;;;;3.23;76.30;103270.72;6092120;23;20462;-73
2023/01/24 07:56:30;;;;;;;9.10;6.13;;;;;;;3.24;75.19;103261.41;6092434;23;20046;-73
2023/01/24 07:58:57;;;;;;;10.63;6.22;;;;;;;3.26;75.12;103254.72;6093938;23;20480;-74
2023/01/24 08:01:23;;;;;;;7.32;5.10;;;;;;;3.25;74.87;103253.84;6091890;23;20057;-73
2023/01/24 08:03:49;;;;;;;8.13;5.65;;;;;;;3.25;74.81;103258.06;6091203;23;20010;-73
2023/01/24 08:06:15;;;;;;;7.43;5.40;;;;;;;3.26;75.50;103263.25;6093354;23;20094;-73
2023/01/24 08:08:41;;;;;;;7.60;5.72;;;;;;;3.27;74.85;103266.69;6093250;23;20477;-73
2023/01/24 08:11:10;;;;;;;10.05;5.85;;;;;;;3.29;75.27;103271.09;6094151;23;20426;-73
2023/01/24 08:13:36;;;;;;;9.15;5.72;;;;;;;3.33;75.02;103267.97;6094470;23;20664;-73
2023/01/24 08:16:01;;;;;;;9.60;6.38;;;;;;;3.36;74.63;103264.69;6091390;23;20014;-72
2023/01/24 08:18:27;;;;;;;9.05;6.22;;;;;;;3.36;74.56;103270.72;6090810;23;20015;-71
2023/01/24 08:20:56;;;;;;;9.75;6.82;;;;;;;3.41;75.06;103279.53;6089915;23;20053;-71
2023/01/24 08:23:22;;;;;;;9.43;6.60;;;;;;;3.43;75.08;103285.63;6092930;23;20025;-71
2023/01/24 08:25:47;;;;;;;7.45;5.40;;;;;;;3.41;74.16;103270.97;6093059;23;20007;-72
2023/01/24 08:28:13;;;;;;;7.78;5.95;;;;;;;3.42;74.39;103271.06;6092488;23;20776;-74
2023/01/24 08:30:38;;;;;;;8.45;5.78;;;;;;;3.40;73.75;103275.22;6092190;23;20497;-74
2023/01/24 08:33:05;;;;;;;9.10;6.45;;;;;;;3.42;74.92;103275.31;6091628;23;20620;-71
2023/01/24 08:35:32;;;;;;;8.35;5.25;;;;;;;3.47;73.72;103267.13;6092930;23;20389;-72
2023/01/24 08:37:57;;;;;;;8.15;5.65;;;;;;;3.54;74.73;103278.59;6093025;23;20006;-71
2023/01/24 08:40:23;;;;;;;12.00;6.63;;;;;;;3.57;74.39;103278.78;6092612;23;20026;-72
2023/01/24 08:42:48;;;;;;;9.40;7.13;;;;;;;3.62;74.77;103281.63;6093164;23;20037;-71
2023/01/24 08:45:14;;;;;;;10.85;7.55;;;;;;;3.65;74.74;103284.34;6091662;23;20014;-72
2023/01/24 08:47:40;;;;;;;11.98;7.65;;;;;;;3.68;74.42;103280.28;6094685;23;20006;-71
2023/01/24 08:50:06;;;;;;;7.63;6.70;;;;;;;3.72;74.51;103279.69;6092668;23;20041;-71
2023/01/24 08:52:31;;;;;;;7.25;5.40;;;;;;;3.70;73.98;103272.72;6092636;23;20014;-71
2023/01/24 08:54:57;;;;;;;10.88;7.07;;;;;;;3.71;74.12;103277.91;6091481;23;20065;-71
2023/01/24 08:57:22;;;;;;;8.60;6.28;;;;;;;3.73;73.83;103271.25;6092093;23;20484;-72
2023/01/24 08:59:47;;;;;;;8.98;5.82;;;;;;;3.75;73.61;103272.22;6092713;23;20342;-72
2023/01/24 09:02:16;;;;;;;8.35;5.82;;;;;;;3.75;73.32;103272.22;6090212;23;20039;-71
2023/01/24 09:04:44;;;;;;;9.13;5.90;;;;;;;3.75;73.12;103281.56;6092338;23;20056;-72
2023/01/24 09:07:14;;;;;;;11.23;6.38;;;;;;;3.81;73.50;103289.59;6092243;23;20018;-72
2023/01/24 09:09:39;;;;;;;15.80;5.72;;;;;;;3.85;73.25;103283.88;6092738;23;20050;-72
2023/01/24 09:12:06;;;;;;;8.70;5.88;;;;;;;3.86;72.74;103285.63;6092413;23;20073;-72
2023/01/24 09:14:31;;;;;;;8.88;5.78;;;;;;;3.88;73.31;103295.19;6092056;23;20038;-72
2023/01/24 09:16:57;;;;;;;9.25;5.65;;;;;;;3.87;73.29;103288.28;6093169;23;20006;-72
2023/01/24 09:19:23;;;;;;;12.75;6.35;;;;;;;3.90;73.08;103295.25;6092154;23;20078;-72
2023/01/24 09:21:51;;;;;;;8.38;6.03;;;;;;;3.93;72.88;103298.88;6092922;23;20104;-72
2023/01/24 09:24:18;;;;;;;12.07;6.93;;;;;;;3.95;73.71;103296.38;6091379;23;20026;-71
2023/01/24 09:26:44;;;;;;;10.27;6.63;;;;;;;3.97;73.27;103297.38;6091990;23;20019;-71
2023/01/24 09:29:10;;;;;;;9.30;5.50;;;;;;;3.98;73.33;103291.44;6091394;23;20014;-71
2023/01/24 09:31:35;;;;;;;11.68;5.70;;;;;;;3.92;72.73;103296.22;6092794;23;20544;-72
2023/01/24 09:34:00;;;;;;;8.70;6.32;;;;;;;3.96;73.73;103299.06;6091751;23;20064;-72
2023/01/24 09:36:27;;;;;;;11.95;6.82;;;;;;;3.99;73.25;103303.47;6092382;23;20022;-72
2023/01/24 09:38:53;;;;;;;9.27;6.18;;;;;;;4.04;73.32;103299.50;6085071;23;20022;-71
2023/01/24 09:41:36;;;;;;;12.43;5.95;;;;;;;4.03;73.85;103305.41;6090099;23;20031;-72
2023/01/24 09:44:30;;;;;;;7.15;5.40;;;;;;;4.09;72.79;103290.44;6093937;23;20093;-72
2023/01/24 09:47:00;;;;;;;8.20;5.75;;;;;;;4.14;72.59;103291.56;6091971;23;20041;-72
2023/01/24 09:49:45;;;;;;;8.32;5.80;;;;;;;4.11;72.45;103296.50;6093314;23;20018;-72
2023/01/24 09:52:18;;;;;;;8.87;5.73;;;;;;;4.17;72.70;103298.53;6092586;23;20030;-71
2023/01/24 09:54:51;;;;;;;7.43;5.32;;;;;;;4.23;72.79;103297.22;6094025;23;20565;-72
2023/01/24 09:57:49;;;;;;;8.07;5.75;;;;;;;4.21;72.68;103291.09;6093424;23;20049;-71
2023/01/24 10:00:25;;;;;;;13.27;5.88;;;;;;;4.23;71.63;103296.31;6095348;23;20018;-72
2023/01/24 10:02:50;;;;;;;13.70;6.85;;;;;;;4.26;72.01;103283.72;6096719;23;20069;-72
2023/01/24 10:05:16;;;;;;;15.63;5.63;;;;;;;4.34;72.12;103285.00;6097620;23;20393;-72
2023/01/24 10:08:13;;;;;;;11.70;5.53;;;;;;;4.31;71.78;103285.72;6097203;23;20524;-71
2023/01/24 10:10:49;;;;;;;14.63;6.07;;;;;;;4.37;71.29;103280.06;6097320;23;20342;-72
2023/01/24 10:13:33;;;;;;;12.55;6.15;;;;;;;4.40;71.66;103278.56;6096237;23;20017;-71
2023/01/24 10:16:29;;;;;;;17.05;5.72;;;;;;;4.35;71.10;103281.66;6096190;23;20010;-71
2023/01/24 10:19:21;;;;;;;10.25;5.57;;;;;;;4.33;70.88;103280.72;6096321;23;20462;-71
2023/01/24 10:22:04;;;;;;;11.18;5.72;;;;;;;4.27;71.94;103299.13;6095630;23;20522;-71
2023/01/24 10:24:37;;;;;;;13.65;7.13;;;;;;;4.31;72.05;103303.66;6096285;23;20074;-71
2023/01/24 10:27:30;;;;;;;12.45;6.10;;;;;;;4.38;72.48;103305.78;6094975;23;20046;-71
2023/01/24 10:30:01;;;;;;;14.05;6.78;;;;;;;4.46;72.72;103294.28;6092153;23;20431;-72
2023/01/24 10:32:32;;;;;;;9.55;6.47;;;;;;;4.44;70.95;103283.09;6094299;23;20089;-71
2023/01/24 10:35:10;;;;;;;9.00;5.90;;;;;;;4.36;71.25;103291.13;6093153;23;20073;-72
2023/01/24 10:37:41;;;;;;;8.52;5.55;;;;;;;4.38;71.22;103289.53;6094662;23;20331;-71
2023/01/24 10:40:14;;;;;;;18.83;7.45;;;;;;;4.40;71.99;103296.50;6093410;23;20010;-72
2023/01/24 10:42:40;;;;;;;11.18;5.80;;;;;;;4.49;71.31;103296.13;6093793;23;20002;-72
2023/01/24 10:45:33;;;;;;;19.25;6.22;;;;;;;4.54;71.17;103292.13;6094310;23;20358;-71
2023/01/24 10:48:06;;;;;;;8.77;5.45;;;;;;;4.60;70.36;103275.44;6095135;23;20023;-71
2023/01/24 10:50:41;;;;;;;15.75;6.13;;;;;;;4.62;70.95;103266.19;6094746;23;20409;-72
2023/01/24 10:53:14;;;;;;;17.33;6.32;;;;;;;4.60;71.34;103272.88;6093272;23;20050;-72
2023/01/24 10:55:39;;;;;;;11.23;7.05;;;;;;;4.55;71.36;103258.06;6094499;23;20053;-72
2023/01/24 10:58:22;;;;;;;9.88;6.03;;;;;;;4.53;71.29;103264.78;6093786;23;20006;-71
2023/01/24 11:00:56;;;;;;;10.90;5.82;;;;;;;4.63;71.02;103279.84;6093436;23;20057;-72
2023/01/24 11:03:34;;;;;;;9.20;5.88;;;;;;;4.54;70.89;103254.59;6092520;23;20021;-71
2023/01/24 11:06:01;;;;;;;10.27;6.72;;;;;;;4.52;71.28;103263.00;6093397;23;20537;-72
2023/01/24 11:08:34;;;;;;;9.43;6.10;;;;;;;4.55;71.39;103278.56;6092609;23;20069;-72
2023/01/24 11:10:59;;;;;;;9.75;7.03;;;;;;;4.58;72.34;103276.16;6093925;23;20352;-72
2023/01/24 11:13:38;;;;;;;9.25;7.47;;;;;;;4.63;71.65;103269.59;6091439;23;20015;-71
2023/01/24 11:16:21;;;;;;;11.57;7.13;;;;;;;4.66;71.76;103267.22;6092379;23;20002;-71
2023/01/24 11:18:55;;;;;;;11.90;6.80;;;;;;;4.65;71.85;103262.91;6093819;23;20002;-71
2023/01/24 11:21:21;;;;;;;12.32;6.60;;;;;;;4.70;70.54;103252.91;6090982;23;20022;-71
2023/01/24 11:23:59;;;;;;;12.63;6.97;;;;;;;4.67;70.31;103245.94;6091444;23;20509;-71
2023/01/24 11:26:28;;;;;;;13.52;6.60;;;;;;;4.68;70.92;103250.28;6093007;23;20335;-71
2023/01/24 11:29:00;;;;;;;19.92;7.47;;;;;;;4.76;71.59;103249.00;6067379;23;20025;-71
2023/01/24 11:31:30;;;;;;;10.35;6.57;;;;;;;4.82;71.59;103248.44;6091239;23;20097;-72
2023/01/24 11:34:29;;;;;;;14.95;6.65;;;;;;;4.85;70.49;103243.50;6092830;23;20449;-72
2023/01/24 11:37:06;;;;;;;8.48;6.28;;;;;;;4.78;70.42;103247.41;6091771;23;20028;-71
2023/01/24 11:39:40;;;;;;;12.90;7.18;;;;;;;4.80;70.83;103257.75;6091978;23;20102;-72
2023/01/24 11:42:33;;;;;;;9.27;6.63;;;;;;;4.71;69.92;103235.06;6091785;23;20077;-71
2023/01/24 11:45:34;;;;;;;10.52;6.43;;;;;;;4.60;71.98;103262.63;6090810;23;20018;-71
2023/01/24 11:48:11;;;;;;;11.27;6.60;;;;;;;4.62;71.50;103245.69;6091551;23;20097;-71
2023/01/24 11:51:01;;;;;;;12.40;6.90;;;;;;;4.65;71.40;103235.63;6090657;23;20109;-71
2023/01/24 11:53:59;;;;;;;12.60;7.00;;;;;;;4.64;70.91;103223.59;6076703;23;20461;-72
2023/01/24 11:56:43;;;;;;;11.18;6.65;;;;;;;4.61;71.34;103237.91;6077836;23;20030;-71
2023/01/24 11:59:32;;;;;;;11.63;7.00;;;;;;;4.68;71.10;103228.06;6091726;23;20154;-73
2023/01/24 12:02:28;;;;;;;10.52;6.70;;;;;;;4.63;70.92;103234.63;6084854;23;20022;-71
2023/01/24 12:05:29;;;;;;;10.15;6.75;;;;;;;4.52;70.43;103228.03;6092728;23;20018;-71
2023/01/24 12:08:11;;;;;;;8.93;6.40;;;;;;;4.43;70.11;103224.97;6092136;23;20010;-71
2023/01/24 12:10:54;;;;;;;9.35;7.28;;;;;;;4.47;71.12;103239.72;6092954;23;20074;-71
2023/01/24 12:13:57;;;;;;;16.15;7.57;;;;;;;4.59;71.56;103235.28;6092231;23;20013;-71
2023/01/24 12:16:56;;;;;;;16.02;7.38;;;;;;;4.68;70.99;103217.81;6095626;23;20069;-71
2023/01/24 12:19:52;;;;;;;11.38;6.97;;;;;;;4.74;70.34;103208.72;6092805;23;20087;-71